Time;durP1;ratioP1;P1;durP2;ratioP2;P2;SDS_P1;SDS_P2;PMS_P1;PMS_P2;Temp;Humidity;BMP_temperature;BMP_pressure;BME280_temperature;BME280_humidity;BME280_pressure;Samples;Min_cycle;Max_cycle;Signal;HPM_P1;HPM_P2
2022/05/29 00:26:46;;;;;;;6.88;4.88;;;;;;;;;;3317500;26;20053;-73
2022/05/29 00:29:12;;;;;;;4.30;4.00;;;;;;;;;;5030010;28;20053;-73
2022/05/29 00:31:38;;;;;;;8.27;4.75;;;;;;;;;;5031199;28;20133;-73
2022/05/29 00:34:04;;;;;;;13.77;4.32;;;;;;;;;;5031555;28;20045;-71
2022/05/29 00:36:34;;;;;;;4.57;3.92;;;;;;;;;;5030981;28;20056;-72
2022/05/29 00:39:00;;;;;;;7.70;4.30;;;;;;;;;;5031334;28;20404;-71
2022/05/29 00:41:26;;;;;;;7.68;4.25;;;;;;;;;;5030806;28;20283;-72
2022/05/29 00:44:12;;;;;;;4.95;3.75;;;;;;;;;;5030028;28;20033;-71
2022/05/29 00:46:38;;;;;;;4.85;4.00;;;;;;;;;;5029945;28;20041;-72
2022/05/29 00:49:07;;;;;;;6.82;4.00;;;;;;;;;;5031155;28;20513;-71
2022/05/29 00:51:36;;;;;;;7.55;4.05;;;;;;;;;;5030907;28;20064;-72
2022/05/29 00:54:02;;;;;;;8.05;4.00;;;;;;;;;;5031334;28;20037;-70
2022/05/29 00:56:28;;;;;;;5.07;3.72;;;;;;;;;;5012767;28;20037;-71
2022/05/29 00:58:54;;;;;;;3.60;3.15;;;;;;;;;;5031019;28;20168;-72
2022/05/29 01:01:20;;;;;;;5.53;4.22;;;;;;;;;;5030647;28;20041;-72
2022/05/29 01:03:45;;;;;;;4.30;3.97;;;;;;;;;;5030021;28;20036;-72
2022/05/29 01:06:12;;;;;;;9.35;3.80;;;;;;;;;;5030793;28;20047;-72
2022/05/29 01:08:38;;;;;;;4.80;3.42;;;;;;;;;;5031409;28;20492;-72
2022/05/29 01:11:23;;;;;;;7.70;3.58;;;;;;;;;;5032603;28;20045;-72
2022/05/29 01:14:04;;;;;;;6.60;4.05;;;;;;;;;;5033031;28;20037;-72
2022/05/29 01:16:34;;;;;;;5.97;3.10;;;;;;;;;;5031221;28;20056;-71
2022/05/29 01:19:00;;;;;;;4.80;4.40;;;;;;;;;;5029594;28;20048;-73
2022/05/29 01:21:45;;;;;;;5.65;3.33;;;;;;;;;;5030183;28;20409;-73
2022/05/29 01:24:29;;;;;;;3.10;2.80;;;;;;;;;;5030358;28;20045;-72
2022/05/29 01:26:58;;;;;;;4.28;2.95;;;;;;;;;;5015574;28;20057;-72
2022/05/29 01:29:39;;;;;;;4.82;3.15;;;;;;;;;;5010329;28;20120;-72
2022/05/29 01:32:12;;;;;;;4.00;3.53;;;;;;;;;;5010498;28;20037;-72
2022/05/29 01:34:49;;;;;;;6.38;2.60;;;;;;;;;;5009336;28;20048;-72
2022/05/29 01:37:16;;;;;;;2.92;2.72;;;;;;;;;;5008248;28;20045;-73
2022/05/29 01:39:47;;;;;;;3.67;2.80;;;;;;;;;;4992889;28;20030;-71
2022/05/29 01:42:13;;;;;;;;;;;;;;;;;;5009418;28;20049;-72
2022/05/29 01:44:44;;;;;;;5.63;2.53;;;;;;;;;;5010212;28;19913;-73
2022/05/29 01:47:15;;;;;;;4.15;2.65;;;;;;;;;;5010124;28;20540;-72
2022/05/29 01:49:44;;;;;;;3.15;2.92;;;;;;;;;;5009122;28;20042;-74
2022/05/29 01:52:26;;;;;;;4.93;2.65;;;;;;;;;;5009024;28;20057;-72
2022/05/29 01:54:52;;;;;;;4.38;3.17;;;;;;;;;;5009312;28;20490;-73
2022/05/29 01:57:23;;;;;;;3.00;2.75;;;;;;;;;;5009725;28;20124;-72
2022/05/29 01:59:51;;;;;;;2.90;2.70;;;;;;;;;;5009021;28;20040;-72
2022/05/29 02:02:18;;;;;;;3.78;2.83;;;;;;;;;;5008450;28;20037;-72
2022/05/29 02:04:46;;;;;;;3.67;2.45;;;;;;;;;;5008967;28;20029;-72
2022/05/29 02:10:00;;;;;;;2.83;2.50;;;;;;;;;;5009112;28;20080;-72
2022/05/29 02:12:26;;;;;;;3.80;2.38;;;;;;;;;;5009688;28;20419;-73
2022/05/29 02:14:54;;;;;;;3.25;2.80;;;;;;;;;;4992510;28;20033;-72
2022/05/29 02:17:21;;;;;;;4.47;2.63;;;;;;;;;;5009684;28;20124;-73
2022/05/29 02:19:56;;;;;;;2.53;2.33;;;;;;;;;;5008794;28;20045;-73
2022/05/29 02:22:25;;;;;;;2.78;2.58;;;;;;;;;;5009767;28;20044;-72
2022/05/29 02:24:52;;;;;;;4.47;2.72;;;;;;;;;;5010499;28;20120;-72
2022/05/29 02:27:17;;;;;;;4.68;2.53;;;;;;;;;;5025303;28;20112;-72
2022/05/29 02:29:43;;;;;;;2.97;2.78;;;;;;;;;;5010764;28;20045;-72
2022/05/29 02:32:17;;;;;;;3.13;2.75;;;;;;;;;;5025650;28;20026;-73
2022/05/29 02:35:02;;;;;;;2.90;2.67;;;;;;;;;;5014090;28;20033;-72
2022/05/29 02:37:41;;;;;;;3.55;2.70;;;;;;;;;;5013958;28;20036;-72
2022/05/29 02:40:07;;;;;;;3.03;2.60;;;;;;;;;;5014096;28;20547;-73
2022/05/29 02:42:36;;;;;;;5.22;2.20;;;;;;;;;;5013614;28;20060;-72
2022/05/29 02:45:02;;;;;;;2.45;2.35;;;;;;;;;;5014135;28;20124;-72
2022/05/29 02:47:31;;;;;;;3.30;2.53;;;;;;;;;;5013304;28;20441;-73
2022/05/29 02:50:02;;;;;;;2.88;2.40;;;;;;;;;;5013704;28;20099;-72
2022/05/29 02:52:28;;;;;;;;;;;;;;;;;;5014001;28;20081;-72
2022/05/29 02:54:55;;;;;;;2.45;2.33;;;;;;;;;;5013896;28;20409;-73
2022/05/29 02:57:20;;;;;;;2.65;2.42;;;;;;;;;;5013263;28;20184;-73
2022/05/29 02:59:50;;;;;;;4.43;2.63;;;;;;;;;;5013808;28;20065;-73
2022/05/29 03:02:18;;;;;;;5.05;2.63;;;;;;;;;;5012063;28;20041;-74
2022/05/29 03:04:59;;;;;;;4.68;2.58;;;;;;;;;;5012391;28;20034;-73
2022/05/29 03:07:25;;;;;;;;;;;;;;;;;;5013598;28;20034;-73
2022/05/29 03:09:57;;;;;;;2.08;1.98;;;;;;;;;;5013310;28;19924;-73
2022/05/29 03:12:24;;;;;;;3.28;2.45;;;;;;;;;;5011629;28;20049;-72
2022/05/29 03:14:53;;;;;;;2.92;2.42;;;;;;;;;;5012148;28;20037;-73
2022/05/29 03:17:23;;;;;;;2.45;2.13;;;;;;;;;;5011459;28;20224;-73
2022/05/29 03:19:53;;;;;;;3.72;2.22;;;;;;;;;;5011932;28;20066;-72
2022/05/29 03:22:35;;;;;;;2.40;2.20;;;;;;;;;;5011576;28;20041;-74
2022/05/29 03:25:04;;;;;;;2.10;2.00;;;;;;;;;;5012998;28;20040;-74
2022/05/29 03:27:44;;;;;;;3.83;2.05;;;;;;;;;;5048369;28;20528;-73
2022/05/29 03:30:12;;;;;;;3.63;2.13;;;;;;;;;;5034787;28;20041;-73
2022/05/29 03:32:38;;;;;;;4.30;2.20;;;;;;;;;;5017608;28;20067;-73
2022/05/29 03:35:14;;;;;;;3.47;2.10;;;;;;;;;;5052460;28;20083;-73
2022/05/29 03:37:40;;;;;;;2.55;2.35;;;;;;;;;;5051909;28;20067;-73
2022/05/29 03:40:09;;;;;;;9.30;2.10;;;;;;;;;;5052339;28;20049;-74
2022/05/29 03:42:36;;;;;;;3.80;2.40;;;;;;;;;;5034205;28;20171;-72
2022/05/29 03:45:02;;;;;;;3.47;2.58;;;;;;;;;;5051964;28;20588;-72
2022/05/29 03:47:29;;;;;;;3.28;2.50;;;;;;;;;;5051738;28;20044;-73
2022/05/29 03:49:55;;;;;;;2.58;2.30;;;;;;;;;;5017822;28;20041;-72
2022/05/29 03:52:21;;;;;;;1.98;1.88;;;;;;;;;;5051616;28;20025;-74
2022/05/29 03:54:46;;;;;;;3.88;2.20;;;;;;;;;;5052190;28;20562;-73
2022/05/29 03:57:12;;;;;;;1.70;1.70;;;;;;;;;;5051818;28;20064;-71
2022/05/29 03:59:38;;;;;;;4.45;2.50;;;;;;;;;;5051658;28;20794;-73
2022/05/29 04:02:07;;;;;;;2.85;2.45;;;;;;;;;;5051838;28;20033;-73
2022/05/29 04:04:33;;;;;;;2.92;2.45;;;;;;;;;;5033993;28;20041;-73
2022/05/29 04:06:58;;;;;;;3.45;2.50;;;;;;;;;;5051664;28;20055;-74
2022/05/29 04:12:12;;;;;;;3.97;2.05;;;;;;;;;;5051732;28;20051;-72
2022/05/29 04:14:39;;;;;;;2.15;2.00;;;;;;;;;;5051352;28;20072;-74
2022/05/29 04:17:05;;;;;;;4.90;1.90;;;;;;;;;;5050322;28;20036;-74
2022/05/29 04:19:31;;;;;;;2.50;2.20;;;;;;;;;;5049693;28;20416;-72
2022/05/29 04:21:57;;;;;;;2.03;1.92;;;;;;;;;;5033512;28;20111;-72
2022/05/29 04:24:23;;;;;;;2.33;1.77;;;;;;;;;;5050514;28;20047;-72
2022/05/29 04:26:49;;;;;;;3.90;1.80;;;;;;;;;;5032113;28;20088;-72
2022/05/29 04:29:15;;;;;;;3.42;1.70;;;;;;;;;;5011764;28;20078;-71
2022/05/29 04:32:59;;;;;;;2.63;1.80;;;;;;;;;;5012634;28;20025;-73
2022/05/29 04:34:27;;;;;;;1.83;1.73;;;;;;;;;;5011493;28;20038;-72
2022/05/29 04:36:53;;;;;;;2.10;1.63;;;;;;;;;;5011678;28;20077;-74
2022/05/29 04:39:19;;;;;;;3.75;2.72;;;;;;;;;;4993975;28;20038;-73
2022/05/29 04:41:45;;;;;;;2.03;1.92;;;;;;;;;;4993724;28;20125;-74
2022/05/29 04:44:10;;;;;;;2.25;1.67;;;;;;;;;;4978536;28;20042;-75
2022/05/29 04:46:36;;;;;;;3.10;2.20;;;;;;;;;;5011149;28;20034;-74
2022/05/29 04:49:02;;;;;;;5.72;2.05;;;;;;;;;;4993918;28;20145;-77
2022/05/29 04:51:28;;;;;;;1.48;1.38;;;;;;;;;;5011104;28;20034;-75
2022/05/29 04:53:54;;;;;;;1.90;1.70;;;;;;;;;;5005673;28;20041;-73
2022/05/29 04:56:20;;;;;;;2.00;1.90;;;;;;;;;;5030224;28;20029;-73
2022/05/29 04:58:46;;;;;;;2.00;1.90;;;;;;;;;;5030826;28;20037;-72
2022/05/29 05:01:12;;;;;;;2.60;1.98;;;;;;;;;;5013192;28;20033;-71
2022/05/29 05:03:38;;;;;;;3.70;3.40;;;;;;;;;;5030786;28;20045;-74
2022/05/29 05:06:04;;;;;;;3.83;2.90;;;;;;;;;;5014800;28;20069;-73
2022/05/29 05:08:30;;;;;;;5.13;2.70;;;;;;;;;;5007324;28;20070;-73
2022/05/29 05:10:56;;;;;;;2.63;2.40;;;;;;;;;;4998237;28;20413;-74
2022/05/29 05:13:22;;;;;;;7.63;4.35;;;;;;;;;;5011343;28;20073;-72
2022/05/29 05:15:48;;;;;;;3.03;2.83;;;;;;;;;;5010980;28;20030;-70
2022/05/29 05:18:14;;;;;;;4.95;4.50;;;;;;;;;;4993351;28;20751;-72
2022/05/29 05:20:41;;;;;;;5.03;3.58;;;;;;;;;;5011002;28;20034;-72
2022/05/29 05:23:31;;;;;;;3.85;3.22;;;;;;;;;;5010951;28;20100;-72
2022/05/29 05:25:57;;;;;;;5.82;5.10;;;;;;;;;;4993489;28;20046;-72
2022/05/29 05:28:26;;;;;;;5.55;5.15;;;;;;;;;;5010239;28;20088;-72
2022/05/29 05:30:52;;;;;;;5.82;5.25;;;;;;;;;;5010589;28;20044;-71
2022/05/29 05:33:19;;;;;;;3.33;3.10;;;;;;;;;;4993261;28;20037;-72
2022/05/29 05:35:44;;;;;;;1.70;1.60;;;;;;;;;;5010491;28;20137;-72
2022/05/29 05:38:10;;;;;;;1.92;1.70;;;;;;;;;;4992891;28;20030;-71
2022/05/29 05:40:36;;;;;;;1.98;1.88;;;;;;;;;;5014112;28;20505;-72
2022/05/29 05:43:02;;;;;;;5.03;1.50;;;;;;;;;;5026039;28;20068;-70
2022/05/29 05:45:28;;;;;;;3.30;2.95;;;;;;;;;;5029831;28;20452;-72
2022/05/29 05:47:55;;;;;;;1.73;1.48;;;;;;;;;;5029979;28;20056;-71
2022/05/29 05:50:20;;;;;;;1.85;1.73;;;;;;;;;;5013607;28;20036;-71
2022/05/29 05:52:49;;;;;;;1.60;1.50;;;;;;;;;;5016107;28;20041;-71
2022/05/29 05:55:15;;;;;;;2.17;2.05;;;;;;;;;;5030145;28;20116;-70
2022/05/29 05:57:44;;;;;;;1.63;1.52;;;;;;;;;;5019484;28;20053;-71
2022/05/29 06:00:11;;;;;;;2.47;1.33;;;;;;;;;;5010558;28;20107;-72
2022/05/29 06:02:41;;;;;;;1.77;1.67;;;;;;;;;;5017261;28;20033;-72
2022/05/29 06:05:07;;;;;;;1.42;1.40;;;;;;;;;;5029946;28;20037;-72
2022/05/29 06:07:33;;;;;;;2.03;1.90;;;;;;;;;;5028231;28;20131;-72
2022/05/29 06:09:59;;;;;;;1.98;1.80;;;;;;;;;;5029612;28;20033;-72
2022/05/29 06:12:25;;;;;;;1.63;1.52;;;;;;;;;;5023360;28;20030;-72
2022/05/29 06:14:53;;;;;;;2.90;1.55;;;;;;;;;;5028245;28;20102;-72
2022/05/29 06:17:19;;;;;;;1.75;1.55;;;;;;;;;;5028343;28;20443;-72
2022/05/29 06:19:45;;;;;;;1.55;1.45;;;;;;;;;;5028254;28;20092;-71
2022/05/29 06:22:11;;;;;;;1.40;1.40;;;;;;;;;;5029456;28;20033;-72
2022/05/29 06:24:37;;;;;;;1.30;1.30;;;;;;;;;;5029426;28;20037;-72
2022/05/29 06:27:03;;;;;;;1.38;1.38;;;;;;;;;;5029273;28;20053;-72
2022/05/29 06:29:29;;;;;;;1.17;1.17;;;;;;;;;;5027881;28;20055;-71
2022/05/29 06:31:59;;;;;;;1.60;1.50;;;;;;;;;;5011684;28;20029;-72
2022/05/29 06:34:25;;;;;;;1.38;1.27;;;;;;;;;;5012138;28;20043;-71
2022/05/29 06:36:51;;;;;;;2.47;1.02;;;;;;;;;;5029127;28;20576;-72
2022/05/29 06:39:17;;;;;;;1.00;1.00;;;;;;;;;;5029401;28;20520;-70
2022/05/29 06:41:43;;;;;;;1.15;1.15;;;;;;;;;;5020049;28;20529;-70
2022/05/29 06:44:11;;;;;;;0.90;0.90;;;;;;;;;;5011867;28;20715;-72
2022/05/29 06:46:37;;;;;;;1.05;1.05;;;;;;;;;;5029032;28;20049;-72
2022/05/29 06:49:03;;;;;;;0.85;0.85;;;;;;;;;;5029469;28;20068;-72
2022/05/29 06:51:28;;;;;;;1.25;1.10;;;;;;;;;;5019452;28;20060;-73
2022/05/29 06:53:55;;;;;;;1.17;1.17;;;;;;;;;;5026567;28;20037;-72
2022/05/29 06:56:21;;;;;;;3.08;1.00;;;;;;;;;;5009647;28;20044;-73
2022/05/29 06:58:47;;;;;;;1.40;1.30;;;;;;;;;;5013726;28;20037;-72
2022/05/29 07:07:01;;;;;;;1.15;1.15;;;;;;;;;;5024644;28;20026;-74
2022/05/29 07:09:28;;;;;;;1.00;1.00;;;;;;;;;;4993667;28;20099;-75
2022/05/29 07:11:56;;;;;;;1.20;1.08;;;;;;;;;;5009075;28;20034;-73
2022/05/29 07:14:21;;;;;;;1.17;1.17;;;;;;;;;;4994971;28;20033;-73
2022/05/29 07:16:47;;;;;;;0.98;0.98;;;;;;;;;;5017050;28;20113;-74
2022/05/29 07:19:14;;;;;;;2.92;2.28;;;;;;;;;;5014979;28;20041;-74
2022/05/29 07:21:40;;;;;;;2.97;2.55;;;;;;;;;;5022386;28;20056;-74
2022/05/29 07:24:06;;;;;;;1.67;1.58;;;;;;;;;;5018693;28;20030;-74
2022/05/29 07:26:32;;;;;;;1.00;1.00;;;;;;;;;;5024190;28;20102;-72
2022/05/29 07:28:59;;;;;;;0.90;0.90;;;;;;;;;;5037485;28;20104;-73
2022/05/29 07:31:25;;;;;;;0.88;0.82;;;;;;;;;;5044803;28;20489;-73
2022/05/29 07:33:51;;;;;;;1.35;1.20;;;;;;;;;;5037092;28;20100;-74
2022/05/29 07:36:21;;;;;;;1.23;1.23;;;;;;;;;;5040976;28;20037;-74
2022/05/29 07:38:46;;;;;;;1.35;1.20;;;;;;;;;;5037511;28;20033;-75
2022/05/29 07:43:57;;;;;;;1.13;1.13;;;;;;;;;;5039574;28;20127;-73
2022/05/29 07:46:23;;;;;;;1.45;1.15;;;;;;;;;;5041341;28;20481;-73
2022/05/29 07:48:51;;;;;;;1.65;1.02;;;;;;;;;;5041358;28;20055;-74
2022/05/29 07:51:17;;;;;;;1.27;1.17;;;;;;;;;;5036511;28;20037;-74
2022/05/29 07:53:44;;;;;;;1.20;1.20;;;;;;;;;;5036370;28;20036;-73
2022/05/29 07:56:10;;;;;;;1.50;1.50;;;;;;;;;;5036916;28;20065;-75
2022/05/29 07:58:38;;;;;;;1.15;1.15;;;;;;;;;;5048082;28;20079;-74
2022/05/29 08:01:04;;;;;;;1.20;1.20;;;;;;;;;;5037926;28;20049;-73
2022/05/29 08:03:30;;;;;;;0.85;0.85;;;;;;;;;;5037067;28;20029;-76
2022/05/29 08:05:59;;;;;;;1.17;1.15;;;;;;;;;;5039357;28;20420;-74
2022/05/29 08:08:26;;;;;;;1.23;1.10;;;;;;;;;;5037894;28;20099;-75
2022/05/29 08:10:52;;;;;;;1.60;1.50;;;;;;;;;;5023879;28;20501;-74
2022/05/29 08:13:18;;;;;;;1.60;1.50;;;;;;;;;;5039365;28;20045;-74
2022/05/29 08:15:44;;;;;;;6.47;1.33;;;;;;;;;;5041683;28;20029;-74
2022/05/29 08:18:10;;;;;;;4.90;1.30;;;;;;;;;;5037953;28;20033;-74
2022/05/29 08:20:39;;;;;;;3.08;1.25;;;;;;;;;;5040501;28;20707;-73
2022/05/29 08:23:06;;;;;;;1.65;1.38;;;;;;;;;;5038038;28;20041;-75
2022/05/29 08:31:02;;;;;;;2.08;1.40;;;;;;;;;;5037836;28;20041;-73
2022/05/29 08:33:28;;;;;;;2.03;1.67;;;;;;;;;;5051014;28;20025;-74
2022/05/29 08:36:03;;;;;;;1.00;1.00;;;;;;;;;;5051869;28;20076;-72
2022/05/29 08:38:29;;;;;;;1.70;1.60;;;;;;;;;;5039994;28;20033;-75
2022/05/29 08:41:02;;;;;;;2.20;1.10;;;;;;;;;;5053348;28;20048;-74
2022/05/29 08:43:32;;;;;;;1.20;1.10;;;;;;;;;;5036221;28;20408;-74
2022/05/29 08:45:58;;;;;;;2.42;1.73;;;;;;;;;;5041592;28;20036;-73
2022/05/29 08:48:24;;;;;;;1.45;1.23;;;;;;;;;;5041281;28;20045;-74
2022/05/29 08:50:53;;;;;;;3.75;2.20;;;;;;;;;;5042338;28;20117;-76
2022/05/29 08:53:39;;;;;;;1.80;1.70;;;;;;;;;;5037078;28;20032;-75
2022/05/29 08:56:08;;;;;;;3.40;2.05;;;;;;;;;;5032002;28;20037;-75
2022/05/29 08:58:37;;;;;;;1.60;1.50;;;;;;;;;;5031323;28;20559;-73
2022/05/29 09:01:21;;;;;;;4.35;1.50;;;;;;;;;;5047162;28;20027;-74
2022/05/29 09:03:52;;;;;;;1.92;1.60;;;;;;;;;;5035128;28;20065;-74
2022/05/29 09:06:17;;;;;;;;;;;;;;;;;;5040423;28;20025;-74
2022/05/29 09:08:45;;;;;;;1.80;1.55;;;;;;;;;;5031966;28;19975;-76
2022/05/29 09:11:14;;;;;;;1.40;1.25;;;;;;;;;;5031798;28;20107;-76
2022/05/29 09:13:40;;;;;;;1.88;1.30;;;;;;;;;;5047817;28;20570;-77
2022/05/29 09:16:16;;;;;;;1.80;1.70;;;;;;;;;;5047691;28;20056;-75
2022/05/29 09:18:42;;;;;;;1.90;1.77;;;;;;;;;;5031344;28;20575;-75
2022/05/29 09:21:10;;;;;;;1.73;1.48;;;;;;;;;;5048592;28;20028;-75
2022/05/29 09:23:58;;;;;;;1.40;1.38;;;;;;;;;;5031362;28;20071;-75
2022/05/29 09:26:24;;;;;;;1.60;1.50;;;;;;;;;;5043088;28;20057;-74
2022/05/29 09:28:50;;;;;;;2.13;1.85;;;;;;;;;;5029886;28;20053;-75
2022/05/29 09:31:20;;;;;;;1.83;1.48;;;;;;;;;;5013018;28;20033;-74
2022/05/29 09:33:46;;;;;;;5.07;2.17;;;;;;;;;;5029777;28;20048;-75
2022/05/29 09:36:31;;;;;;;2.17;2.05;;;;;;;;;;5012767;28;20500;-74
2022/05/29 09:38:58;;;;;;;3.13;1.35;;;;;;;;;;5029918;28;20037;-76
2022/05/29 09:41:41;;;;;;;1.02;1.02;;;;;;;;;;5012330;28;20053;-74
2022/05/29 09:44:10;;;;;;;1.23;1.23;;;;;;;;;;5012145;28;20064;-74
2022/05/29 09:46:37;;;;;;;1.42;1.20;;;;;;;;;;5029728;28;20087;-73
2022/05/29 09:52:14;;;;;;;1.40;1.30;;;;;;;;;;5029544;28;20044;-74
2022/05/29 09:54:44;;;;;;;1.80;1.20;;;;;;;;;;5008672;28;20528;-73
2022/05/29 09:57:12;;;;;;;1.30;1.30;;;;;;;;;;5012017;28;20100;-73
2022/05/29 09:59:38;;;;;;;1.85;1.38;;;;;;;;;;5027874;28;20033;-73
2022/05/29 10:02:05;;;;;;;1.88;1.65;;;;;;;;;;5011673;28;20192;-75
2022/05/29 10:04:35;;;;;;;2.15;1.40;;;;;;;;;;5028187;28;20045;-75
2022/05/29 10:07:01;;;;;;;2.70;1.30;;;;;;;;;;5029383;28;20045;-72
2022/05/29 10:09:27;;;;;;;7.10;1.70;;;;;;;;;;5011229;28;20041;-73
2022/05/29 10:11:56;;;;;;;1.92;1.52;;;;;;;;;;5028981;28;20033;-73
2022/05/29 10:14:30;;;;;;;0.88;0.88;;;;;;;;;;5029409;28;20030;-73
2022/05/29 10:16:56;;;;;;;1.33;1.33;;;;;;;;;;5011460;28;20148;-74
2022/05/29 10:19:35;;;;;;;2.15;1.52;;;;;;;;;;5028107;28;20121;-74
2022/05/29 10:22:01;;;;;;;1.52;1.20;;;;;;;;;;5011771;28;20159;-74
2022/05/29 10:24:28;;;;;;;1.48;1.30;;;;;;;;;;5029117;28;20156;-74
2022/05/29 10:26:55;;;;;;;1.40;1.30;;;;;;;;;;5029695;28;20069;-74
2022/05/29 10:29:28;;;;;;;1.10;1.10;;;;;;;;;;5048940;28;20501;-74
2022/05/29 10:31:53;;;;;;;1.70;1.20;;;;;;;;;;5045995;28;20087;-74
2022/05/29 10:34:24;;;;;;;1.10;1.10;;;;;;;;;;5047793;28;20497;-74
2022/05/29 10:36:50;;;;;;;;;;;;;;;;;;5050514;28;20036;-75
2022/05/29 10:39:20;;;;;;;1.38;1.30;;;;;;;;;;5048079;28;20007;-74
2022/05/29 10:41:46;;;;;;;1.27;1.27;;;;;;;;;;5049310;28;20441;-75
2022/05/29 10:44:14;;;;;;;1.88;1.77;;;;;;;;;;5015011;28;20041;-75
2022/05/29 10:47:04;;;;;;;1.60;1.50;;;;;;;;;;5048651;28;20029;-76
2022/05/29 10:49:31;;;;;;;1.60;1.50;;;;;;;;;;5041485;28;20049;-75
2022/05/29 10:51:57;;;;;;;1.88;1.63;;;;;;;;;;5047911;28;20191;-74
2022/05/29 10:54:30;;;;;;;6.60;1.83;;;;;;;;;;5050552;28;20667;-75
2022/05/29 10:56:59;;;;;;;2.67;1.85;;;;;;;;;;5035425;28;20044;-74
2022/05/29 10:59:44;;;;;;;4.22;1.42;;;;;;;;;;5052965;28;20040;-75
2022/05/29 11:04:54;;;;;;;1.30;1.30;;;;;;;;;;5052620;28;20028;-74
2022/05/29 11:07:41;;;;;;;2.40;1.83;;;;;;;;;;5052812;28;20408;-74
2022/05/29 11:10:20;;;;;;;6.20;1.73;;;;;;;;;;5049751;28;20122;-74
2022/05/29 11:12:50;;;;;;;1.63;1.53;;;;;;;;;;5035196;28;20041;-75
2022/05/29 11:15:26;;;;;;;2.95;1.98;;;;;;;;;;5051987;28;20114;-75
2022/05/29 11:17:58;;;;;;;1.38;1.30;;;;;;;;;;5034226;28;20029;-74
2022/05/29 11:20:39;;;;;;;1.15;1.15;;;;;;;;;;5052839;28;20056;-75
2022/05/29 11:23:12;;;;;;;1.80;1.33;;;;;;;;;;5052710;28;20092;-74
2022/05/29 11:25:38;;;;;;;3.03;1.30;;;;;;;;;;5052326;28;20049;-75
2022/05/29 11:28:27;;;;;;;2.22;1.27;;;;;;;;;;5052793;28;20048;-74
2022/05/29 11:31:08;;;;;;;1.58;1.45;;;;;;;;;;4999728;28;20045;-74
2022/05/29 11:33:55;;;;;;;1.92;1.30;;;;;;;;;;5034882;28;20033;-74
2022/05/29 11:36:39;;;;;;;1.20;1.10;;;;;;;;;;5052921;28;20037;-73
2022/05/29 11:39:06;;;;;;;1.50;1.00;;;;;;;;;;5034555;28;20412;-74
2022/05/29 11:41:32;;;;;;;1.85;1.00;;;;;;;;;;5052794;28;20136;-74
2022/05/29 11:44:01;;;;;;;1.70;1.05;;;;;;;;;;5052158;28;20148;-74
2022/05/29 11:52:04;;;;;;;2.40;1.83;;;;;;;;;;5037039;28;20298;-75
2022/05/29 11:54:31;;;;;;;3.17;1.38;;;;;;;;;;5034547;28;20119;-75
2022/05/29 11:57:03;;;;;;;7.07;1.42;;;;;;;;;;5033481;28;20060;-75
2022/05/29 11:59:35;;;;;;;1.60;1.08;;;;;;;;;;5017545;28;20485;-75
2022/05/29 12:02:22;;;;;;;1.02;1.02;;;;;;;;;;5051165;28;20106;-75
2022/05/29 12:05:12;;;;;;;1.50;1.40;;;;;;;;;;5045346;28;20040;-76
2022/05/29 12:07:42;;;;;;;1.15;1.15;;;;;;;;;;4983928;28;20064;-75
2022/05/29 12:10:23;;;;;;;1.95;1.48;;;;;;;;;;4995382;28;20403;-75
2022/05/29 12:12:57;;;;;;;1.65;1.30;;;;;;;;;;5017395;28;20029;-75
2022/05/29 12:15:23;;;;;;;1.65;1.30;;;;;;;;;;5013420;28;20041;-74
2022/05/29 12:17:54;;;;;;;2.20;1.20;;;;;;;;;;5032039;28;20040;-75
2022/05/29 12:20:36;;;;;;;1.23;1.13;;;;;;;;;;4997852;28;20474;-75
2022/05/29 12:23:02;;;;;;;1.10;1.10;;;;;;;;;;5014204;28;20092;-74
2022/05/29 12:25:28;;;;;;;1.55;1.45;;;;;;;;;;5037040;28;20033;-75
2022/05/29 12:27:54;;;;;;;1.25;1.20;;;;;;;;;;5054967;28;20532;-75
2022/05/29 12:30:24;;;;;;;1.85;1.10;;;;;;;;;;5035869;28;20086;-74
2022/05/29 12:32:51;;;;;;;1.60;1.45;;;;;;;;;;5030608;28;20159;-76
2022/05/29 12:35:20;;;;;;;1.33;1.20;;;;;;;;;;5030004;28;20080;-74
2022/05/29 12:37:52;;;;;;;4.15;1.20;;;;;;;;;;5013600;28;20038;-76
2022/05/29 12:40:31;;;;;;;2.28;1.25;;;;;;;;;;5029920;28;20041;-74
2022/05/29 12:43:25;;;;;;;1.40;1.00;;;;;;;;;;5030328;28;20072;-74
2022/05/29 12:45:51;;;;;;;1.75;1.65;;;;;;;;;;5046646;28;20045;-74
2022/05/29 12:48:21;;;;;;;2.05;1.17;;;;;;;;;;5029846;28;20057;-73
2022/05/29 12:51:05;;;;;;;1.10;1.10;;;;;;;;;;5030710;28;20033;-75
2022/05/29 12:53:51;;;;;;;1.10;1.10;;;;;;;;;;5031070;28;20037;-75
2022/05/29 12:56:38;;;;;;;3.63;1.33;;;;;;;;;;5030990;28;20038;-75
2022/05/29 12:59:11;;;;;;;0.88;0.88;;;;;;;;;;5031044;28;20069;-76
2022/05/29 13:01:43;;;;;;;1.60;1.50;;;;;;;;;;5031384;28;20034;-74
2022/05/29 13:04:21;;;;;;;3.53;1.05;;;;;;;;;;5012640;28;20037;-74
2022/05/29 13:07:06;;;;;;;1.98;1.88;;;;;;;;;;5032965;28;20060;-75
2022/05/29 13:09:54;;;;;;;4.13;1.00;;;;;;;;;;5050591;28;20048;-74
2022/05/29 13:12:43;;;;;;;2.22;1.23;;;;;;;;;;5033312;28;20091;-75
2022/05/29 13:15:20;;;;;;;2.00;1.90;;;;;;;;;;5035921;28;20072;-76
2022/05/29 13:17:46;;;;;;;4.38;1.48;;;;;;;;;;5033480;28;20029;-75
2022/05/29 13:20:14;;;;;;;1.88;1.15;;;;;;;;;;5016014;28;20132;-75
2022/05/29 13:22:50;;;;;;;4.30;1.30;;;;;;;;;;5032400;28;20505;-75
2022/05/29 13:25:27;;;;;;;1.40;1.30;;;;;;;;;;5012978;28;20049;-74
2022/05/29 13:27:54;;;;;;;1.38;1.10;;;;;;;;;;5030590;28;20131;-73
2022/05/29 13:30:35;;;;;;;1.10;0.90;;;;;;;;;;5050200;28;20084;-75
2022/05/29 13:33:20;;;;;;;1.15;1.15;;;;;;;;;;5050339;28;20057;-75
2022/05/29 13:35:48;;;;;;;1.17;1.08;;;;;;;;;;5050309;28;20139;-74
2022/05/29 13:38:34;;;;;;;1.13;1.10;;;;;;;;;;5050126;28;20037;-74
2022/05/29 13:41:02;;;;;;;3.78;1.10;;;;;;;;;;5049754;28;20037;-76
2022/05/29 13:43:28;;;;;;;1.33;1.10;;;;;;;;;;5050378;28;20527;-75
2022/05/29 13:45:58;;;;;;;0.88;0.88;;;;;;;;;;5049626;28;20028;-74
2022/05/29 13:48:25;;;;;;;1.75;1.13;;;;;;;;;;5048507;28;20152;-76
2022/05/29 13:51:01;;;;;;;3.50;1.30;;;;;;;;;;5049185;28;20087;-75
2022/05/29 13:53:46;;;;;;;1.95;1.02;;;;;;;;;;5048471;28;20041;-75
2022/05/29 13:56:17;;;;;;;2.50;1.40;;;;;;;;;;5050221;28;20039;-76
2022/05/29 14:04:47;;;;;;;1.10;1.10;;;;;;;;;;5049641;28;20037;-74
2022/05/29 14:07:15;;;;;;;1.50;1.40;;;;;;;;;;5047849;28;20113;-75
2022/05/29 14:09:42;;;;;;;1.38;1.38;;;;;;;;;;5049392;28;20068;-75
2022/05/29 14:12:20;;;;;;;1.45;1.35;;;;;;;;;;5048073;28;20083;-74
2022/05/29 14:14:50;;;;;;;1.98;1.55;;;;;;;;;;5049172;28;20524;-73
2022/05/29 14:17:19;;;;;;;3.40;1.35;;;;;;;;;;5049399;28;20060;-75
2022/05/29 14:19:48;;;;;;;1.95;1.50;;;;;;;;;;5047423;28;20122;-75
2022/05/29 14:22:17;;;;;;;1.40;1.30;;;;;;;;;;5048055;28;20662;-73
2022/05/29 14:24:45;;;;;;;1.95;1.45;;;;;;;;;;5048234;28;20035;-74
2022/05/29 14:27:17;;;;;;;1.55;1.40;;;;;;;;;;5062196;28;20067;-74
2022/05/29 14:30:02;;;;;;;1.77;1.30;;;;;;;;;;5071286;28;20044;-73
2022/05/29 14:32:48;;;;;;;1.40;1.25;;;;;;;;;;5055725;28;20466;-74
2022/05/29 14:35:23;;;;;;;1.40;1.25;;;;;;;;;;5036875;28;20042;-72
2022/05/29 14:37:59;;;;;;;1.30;1.30;;;;;;;;;;5032053;28;20520;-75
2022/05/29 14:40:25;;;;;;;1.40;1.27;;;;;;;;;;5031730;28;20079;-75
2022/05/29 14:42:54;;;;;;;2.00;1.85;;;;;;;;;;5038309;28;20077;-75
2022/05/29 14:45:26;;;;;;;2.72;1.50;;;;;;;;;;5051827;28;20032;-74
2022/05/29 14:48:09;;;;;;;2.20;1.40;;;;;;;;;;5052922;28;20052;-74
2022/05/29 14:50:47;;;;;;;1.65;1.20;;;;;;;;;;5035624;28;20037;-74
2022/05/29 14:53:32;;;;;;;0.85;0.85;;;;;;;;;;5035003;28;20036;-74
2022/05/29 14:56:02;;;;;;;1.15;1.15;;;;;;;;;;5017723;28;20610;-74
2022/05/29 14:58:29;;;;;;;1.17;1.13;;;;;;;;;;5034965;28;20041;-74
2022/05/29 15:00:56;;;;;;;1.02;0.93;;;;;;;;;;5035133;28;20067;-74
2022/05/29 15:03:24;;;;;;;1.65;0.98;;;;;;;;;;5018677;28;20094;-74
2022/05/29 15:05:50;;;;;;;1.48;1.40;;;;;;;;;;5053154;28;20029;-74
2022/05/29 15:11:05;;;;;;;1.50;1.23;;;;;;;;;;5066713;28;20040;-75
2022/05/29 15:13:56;;;;;;;1.40;1.15;;;;;;;;;;5051970;28;20043;-76
2022/05/29 15:16:44;;;;;;;1.13;1.10;;;;;;;;;;5034811;28;20053;-75
2022/05/29 15:19:21;;;;;;;1.20;1.10;;;;;;;;;;5052330;28;20113;-75
2022/05/29 15:24:41;;;;;;;2.08;1.40;;;;;;;;;;5052378;28;20036;-75
2022/05/29 15:27:11;;;;;;;1.70;1.60;;;;;;;;;;5043088;28;20146;-75
2022/05/29 15:29:38;;;;;;;2.30;1.17;;;;;;;;;;5052727;28;20056;-74
2022/05/29 15:32:09;;;;;;;2.25;1.17;;;;;;;;;;5052680;28;20574;-76
2022/05/29 15:34:36;;;;;;;2.05;1.23;;;;;;;;;;5022037;28;20040;-74
2022/05/29 15:37:02;;;;;;;0.90;0.90;;;;;;;;;;5060552;28;20044;-75
2022/05/29 15:39:39;;;;;;;0.88;0.88;;;;;;;;;;5039986;28;20033;-75
2022/05/29 15:42:06;;;;;;;2.85;1.60;;;;;;;;;;5052965;28;20037;-76
2022/05/29 15:44:35;;;;;;;1.25;1.15;;;;;;;;;;5034846;28;20040;-75
2022/05/29 15:47:07;;;;;;;3.22;1.35;;;;;;;;;;5051934;28;20611;-76
2022/05/29 15:49:42;;;;;;;1.50;1.30;;;;;;;;;;5050840;28;20098;-76
2022/05/29 15:52:38;;;;;;;1.42;1.20;;;;;;;;;;5050556;28;20040;-75
2022/05/29 15:55:07;;;;;;;0.90;0.90;;;;;;;;;;5046912;28;20596;-74
2022/05/29 15:57:34;;;;;;;1.00;1.00;;;;;;;;;;5051817;28;20086;-74
2022/05/29 16:00:00;;;;;;;1.25;1.10;;;;;;;;;;5051896;28;20036;-77
2022/05/29 16:02:45;;;;;;;2.17;1.05;;;;;;;;;;5050493;28;20032;-75
2022/05/29 16:05:21;;;;;;;1.13;1.13;;;;;;;;;;5051320;28;20033;-76
2022/05/29 16:07:47;;;;;;;1.20;1.10;;;;;;;;;;5051366;28;20043;-76
2022/05/29 16:10:28;;;;;;;3.42;1.38;;;;;;;;;;5050437;28;20036;-77
2022/05/29 16:12:57;;;;;;;1.27;1.17;;;;;;;;;;5066401;28;20029;-76